createdAt,value
2017-08-24T00:01:23.982Z,31.12
2017-08-24T00:03:52.266Z,26.70
2017-08-24T00:06:19.797Z,28.00
2017-08-24T00:08:48.068Z,25.50
2017-08-24T00:11:16.358Z,34.42
2017-08-24T00:13:44.623Z,33.12
2017-08-24T00:16:12.911Z,26.58
2017-08-24T00:18:41.198Z,26.14
2017-08-24T00:21:09.519Z,29.80
2017-08-24T00:23:38.775Z,31.24
2017-08-24T00:26:07.046Z,26.24
2017-08-24T00:28:35.351Z,29.30
2017-08-24T00:31:03.654Z,30.74
2017-08-24T00:33:31.912Z,30.66
2017-08-24T00:36:00.200Z,30.52
2017-08-24T00:38:28.472Z,29.86
2017-08-24T00:40:56.003Z,27.24
2017-08-24T00:43:24.311Z,23.18
2017-08-24T00:45:52.587Z,27.80
2017-08-24T00:48:20.848Z,29.46
2017-08-24T00:50:49.161Z,25.92
2017-08-24T00:53:17.430Z,29.20
2017-08-24T00:55:45.698Z,29.90
2017-08-24T00:58:13.999Z,30.04
2017-08-24T01:00:42.277Z,26.64
2017-08-24T01:03:10.582Z,27.96
2017-08-24T01:05:38.844Z,27.08
2017-08-24T01:08:07.141Z,24.48
2017-08-24T01:10:35.419Z,26.72
2017-08-24T01:13:03.761Z,30.38
2017-08-24T01:15:32.024Z,25.94
2017-08-24T01:18:00.294Z,32.48
2017-08-24T01:20:28.588Z,36.98
2017-08-24T01:22:56.878Z,30.54
2017-08-24T01:25:24.420Z,26.48
2017-08-24T01:27:52.688Z,24.88
2017-08-24T01:30:20.205Z,25.70
2017-08-24T01:32:48.525Z,31.18
2017-08-24T01:35:16.790Z,26.60
2017-08-24T01:37:45.064Z,22.62
2017-08-24T01:40:13.362Z,22.16
2017-08-24T01:42:41.632Z,25.34
2017-08-24T01:45:09.945Z,24.20
2017-08-24T01:47:38.236Z,19.64
2017-08-24T01:50:06.539Z,19.48
2017-08-24T01:52:34.813Z,16.20
2017-08-24T01:55:03.121Z,14.26
2017-08-24T01:57:31.391Z,13.60
2017-08-24T01:59:59.694Z,12.20
2017-08-24T02:02:27.957Z,15.96
2017-08-24T02:04:56.270Z,13.64
2017-08-24T02:07:24.536Z,11.60
2017-08-24T02:09:52.821Z,12.90
2017-08-24T02:12:21.134Z,14.24
2017-08-24T02:14:49.454Z,15.70
2017-08-24T02:17:17.724Z,14.08
2017-08-24T02:19:46.039Z,16.08
2017-08-24T02:22:14.313Z,17.84
2017-08-24T02:24:42.581Z,18.50
2017-08-24T02:27:10.890Z,19.52
2017-08-24T02:29:39.160Z,20.46
2017-08-24T02:32:07.485Z,17.08
2017-08-24T02:34:35.767Z,25.42
2017-08-24T02:37:05.001Z,15.78
2017-08-24T02:39:33.301Z,19.54
2017-08-24T02:42:02.630Z,20.36
2017-08-24T02:44:30.908Z,14.66
2017-08-24T02:46:59.191Z,11.40
2017-08-24T02:49:27.493Z,15.10
2017-08-24T02:51:55.770Z,10.88
2017-08-24T02:54:24.059Z,14.50
2017-08-24T02:56:52.366Z,13.84
2017-08-24T02:59:20.629Z,15.64
2017-08-24T03:01:48.902Z,11.88
2017-08-24T03:04:17.202Z,10.86
2017-08-24T03:06:45.481Z,10.72
2017-08-24T03:09:13.807Z,15.40
2017-08-24T03:11:42.103Z,13.18
2017-08-24T03:14:10.364Z,11.62
2017-08-24T03:16:38.668Z,14.46
2017-08-24T03:19:06.945Z,12.32
2017-08-24T03:21:35.246Z,14.82
2017-08-24T03:24:03.517Z,14.82
2017-08-24T03:26:31.831Z,14.04
2017-08-24T03:29:00.088Z,16.32
2017-08-24T03:31:28.356Z,17.00
2017-08-24T03:33:56.666Z,16.64
2017-08-24T03:36:24.940Z,16.28
2017-08-24T03:38:53.242Z,13.68
2017-08-24T03:41:21.555Z,19.70
2017-08-24T03:43:49.844Z,16.58
2017-08-24T03:46:18.138Z,14.58
2017-08-24T03:48:46.392Z,17.22
2017-08-24T03:51:14.702Z,16.84
2017-08-24T03:53:42.976Z,18.80
2017-08-24T03:56:11.250Z,20.00
2017-08-24T03:58:39.555Z,14.54
2017-08-24T04:01:07.875Z,14.48
2017-08-24T04:03:36.154Z,16.04
2017-08-24T04:06:04.427Z,19.34
2017-08-24T04:08:32.723Z,10.78
2017-08-24T04:11:00.995Z,13.98
2017-08-24T04:13:29.318Z,18.40
2017-08-24T04:15:57.577Z,13.94
2017-08-24T04:18:25.850Z,18.36
2017-08-24T04:20:53.364Z,17.78
2017-08-24T04:23:21.637Z,16.72
2017-08-24T04:25:49.937Z,10.56
2017-08-24T04:28:18.197Z,21.56
2017-08-24T04:30:46.510Z,19.38
2017-08-24T04:33:14.797Z,18.28
2017-08-24T04:35:42.301Z,12.78
2017-08-24T04:38:10.608Z,13.82
2017-08-24T04:40:38.887Z,17.36
2017-08-24T04:43:07.152Z,18.68
2017-08-24T04:45:35.458Z,15.30
2017-08-24T04:48:03.739Z,15.88
2017-08-24T04:50:32.043Z,18.04
2017-08-24T04:53:00.349Z,20.66
2017-08-24T04:55:28.628Z,12.36
2017-08-24T04:57:56.929Z,13.58
2017-08-24T05:00:25.216Z,13.30
2017-08-24T05:02:53.530Z,17.70
2017-08-24T05:05:21.804Z,18.38
2017-08-24T05:07:50.065Z,14.62
2017-08-24T05:10:18.376Z,16.38
2017-08-24T05:12:46.641Z,17.28
2017-08-24T05:15:14.908Z,13.68
2017-08-24T05:17:43.212Z,10.54
2017-08-24T05:20:11.477Z,15.08
2017-08-24T05:22:39.747Z,13.54
2017-08-24T05:25:08.074Z,15.98
2017-08-24T05:27:36.336Z,14.38
2017-08-24T05:30:04.608Z,15.40
2017-08-24T05:32:32.945Z,12.04
2017-08-24T05:35:01.204Z,11.52
2017-08-24T05:37:30.400Z,14.50
2017-08-24T05:39:58.704Z,13.26
2017-08-24T05:42:26.965Z,12.76
2017-08-24T05:44:55.268Z,17.64
2017-08-24T05:47:23.569Z,13.14
2017-08-24T05:49:51.836Z,11.42
2017-08-24T05:52:20.133Z,14.46
2017-08-24T05:54:48.512Z,12.44
2017-08-24T05:57:16.811Z,10.38
2017-08-24T05:59:45.073Z,15.84
2017-08-24T06:02:13.337Z,9.04
2017-08-24T06:04:41.640Z,12.96
2017-08-24T06:07:10.828Z,10.50
2017-08-24T06:09:39.085Z,15.10
2017-08-24T06:12:07.393Z,16.94
2017-08-24T06:14:35.656Z,10.78
2017-08-24T06:17:03.915Z,15.82
2017-08-24T06:19:32.230Z,14.86
2017-08-24T06:22:00.491Z,19.82
2017-08-24T06:24:28.772Z,15.20
2017-08-24T06:26:57.097Z,12.76
2017-08-24T06:29:25.365Z,15.36
2017-08-24T06:31:53.631Z,13.06
2017-08-24T06:34:21.937Z,15.70
2017-08-24T06:36:50.208Z,17.96
2017-08-24T06:39:18.517Z,14.36
2017-08-24T06:41:46.790Z,18.20
2017-08-24T06:44:15.066Z,11.80
2017-08-24T06:46:43.348Z,13.92
2017-08-24T06:49:11.619Z,19.12
2017-08-24T06:51:39.937Z,18.28
2017-08-24T06:54:08.213Z,17.24
2017-08-24T06:56:36.463Z,13.16
2017-08-24T06:59:04.765Z,25.86
2017-08-24T07:01:33.033Z,17.38
2017-08-24T07:04:02.249Z,22.08
2017-08-24T07:06:30.512Z,17.14
2017-08-24T07:08:58.786Z,21.92
2017-08-24T07:11:27.093Z,26.92
2017-08-24T07:13:55.358Z,20.62
2017-08-24T07:16:23.688Z,18.66
2017-08-24T07:18:51.961Z,21.06
2017-08-24T07:21:20.228Z,20.04
2017-08-24T07:23:48.546Z,17.54
2017-08-24T07:26:16.836Z,18.78
2017-08-24T07:28:45.097Z,21.66
2017-08-24T07:31:13.389Z,27.14
2017-08-24T07:33:41.668Z,22.68
2017-08-24T07:36:10.006Z,27.38
2017-08-24T07:38:38.289Z,23.98
2017-08-24T07:41:05.801Z,20.64
2017-08-24T07:43:34.132Z,25.44
2017-08-24T07:46:02.389Z,26.60
2017-08-24T07:48:30.658Z,26.76
2017-08-24T07:50:58.953Z,28.50
2017-08-24T07:53:27.222Z,23.82
2017-08-24T07:55:55.536Z,22.42
2017-08-24T07:58:23.814Z,21.64
2017-08-24T08:00:52.077Z,34.76
2017-08-24T08:03:20.372Z,22.44
2017-08-24T08:05:48.647Z,24.04
2017-08-24T08:08:16.952Z,29.00
2017-08-24T08:10:45.269Z,24.84
2017-08-24T08:13:13.587Z,23.94
2017-08-24T08:15:41.879Z,23.22
2017-08-24T08:18:10.157Z,22.38
2017-08-24T08:20:38.452Z,23.34
2017-08-24T08:23:06.727Z,22.16
2017-08-24T08:25:35.050Z,23.74
2017-08-24T08:28:03.333Z,24.14
2017-08-24T08:30:31.760Z,22.94
2017-08-24T08:33:00.082Z,26.18
2017-08-24T08:35:28.354Z,23.54
2017-08-24T08:37:56.621Z,29.94
2017-08-24T08:40:24.929Z,25.22
2017-08-24T08:42:53.204Z,26.46
2017-08-24T08:45:21.525Z,19.10
2017-08-24T08:47:49.803Z,23.04
2017-08-24T08:50:18.080Z,27.00
2017-08-24T08:52:46.380Z,24.30
2017-08-24T08:55:14.657Z,22.14
2017-08-24T08:57:42.977Z,24.22
2017-08-24T09:00:11.248Z,22.52
2017-08-24T09:02:39.525Z,27.12
2017-08-24T09:05:07.843Z,25.78
2017-08-24T09:07:36.126Z,21.56
2017-08-24T09:10:03.669Z,25.82
2017-08-24T09:12:31.938Z,24.00
2017-08-24T09:15:00.716Z,21.14
2017-08-24T09:17:28.990Z,22.40
2017-08-24T09:19:57.262Z,24.90
2017-08-24T09:22:25.553Z,23.74
2017-08-24T09:24:53.819Z,24.32
2017-08-24T09:27:22.099Z,21.32
2017-08-24T09:29:50.405Z,25.80
2017-08-24T09:32:18.707Z,24.96
2017-08-24T09:34:46.988Z,27.26
2017-08-24T09:37:14.529Z,22.16
2017-08-24T09:39:42.793Z,21.66
2017-08-24T09:42:11.057Z,25.40
2017-08-24T09:44:39.397Z,27.64
2017-08-24T09:47:07.659Z,25.18
2017-08-24T09:49:35.933Z,24.66
2017-08-24T09:52:04.234Z,20.46
2017-08-24T09:54:32.512Z,20.74
2017-08-24T09:57:00.792Z,28.80
2017-08-24T09:59:29.089Z,24.88
2017-08-24T10:01:57.370Z,25.02
2017-08-24T10:04:25.697Z,21.44
2017-08-24T10:06:53.962Z,22.36
2017-08-24T10:09:22.247Z,21.12
2017-08-24T10:11:50.556Z,19.96
2017-08-24T10:14:18.828Z,23.08
2017-08-24T10:16:47.124Z,21.76
2017-08-24T10:19:15.401Z,27.04
2017-08-24T10:21:42.953Z,22.68
2017-08-24T10:24:11.228Z,18.36
2017-08-24T10:26:39.489Z,21.42
2017-08-24T10:29:07.858Z,20.88
2017-08-24T10:31:36.140Z,27.64
2017-08-24T10:34:04.400Z,23.22
2017-08-24T10:36:32.670Z,17.38
2017-08-24T10:39:00.981Z,17.20
2017-08-24T10:41:29.243Z,26.96
2017-08-24T10:43:57.537Z,17.46
2017-08-24T10:46:25.853Z,16.24
2017-08-24T10:48:54.129Z,18.00
2017-08-24T10:51:22.392Z,20.32
2017-08-24T10:53:50.684Z,17.68
2017-08-24T10:56:18.958Z,15.66
2017-08-24T10:58:47.256Z,16.76
2017-08-24T11:01:15.562Z,17.20
2017-08-24T11:03:43.835Z,15.64
2017-08-24T11:06:12.133Z,16.64
2017-08-24T11:08:40.400Z,16.44
2017-08-24T11:11:08.697Z,17.24
2017-08-24T11:13:36.973Z,17.26
2017-08-24T11:16:05.280Z,16.98
2017-08-24T11:18:33.583Z,19.46
2017-08-24T11:21:01.853Z,17.26
2017-08-24T11:23:30.118Z,15.52
2017-08-24T11:25:58.418Z,13.88
2017-08-24T11:28:25.917Z,19.58
2017-08-24T11:30:54.233Z,16.02
2017-08-24T11:33:22.515Z,17.70
2017-08-24T11:35:50.784Z,17.92
2017-08-24T11:38:19.361Z,13.64
2017-08-24T11:40:47.623Z,14.62
2017-08-24T11:43:15.921Z,21.22
2017-08-24T11:45:43.499Z,18.64
2017-08-24T11:48:11.790Z,14.30
2017-08-24T11:50:40.065Z,14.48
2017-08-24T11:53:08.337Z,15.24
2017-08-24T11:55:36.636Z,16.20
2017-08-24T11:58:04.905Z,14.52
2017-08-24T12:00:33.212Z,14.84
2017-08-24T12:03:01.481Z,13.46
2017-08-24T12:05:29.796Z,22.10
2017-08-24T12:07:58.062Z,13.00
2017-08-24T12:10:26.331Z,13.34
2017-08-24T12:12:54.615Z,15.06
2017-08-24T12:15:22.885Z,15.92
2017-08-24T12:17:51.515Z,13.96
2017-08-24T12:20:19.787Z,12.58
2017-08-24T12:22:48.053Z,13.82
2017-08-24T12:25:16.348Z,14.70
2017-08-24T12:27:44.622Z,11.94
2017-08-24T12:30:12.933Z,15.08
2017-08-24T12:32:41.201Z,30.08
2017-08-24T12:35:08.700Z,14.34
2017-08-24T12:37:36.981Z,17.54
2017-08-24T12:40:05.250Z,18.24
2017-08-24T12:42:33.556Z,13.56
2017-08-24T12:45:01.830Z,12.86
2017-08-24T12:47:30.112Z,13.12
2017-08-24T12:49:58.424Z,15.28
2017-08-24T12:52:26.684Z,16.38
2017-08-24T12:54:54.961Z,12.50
2017-08-24T12:57:22.500Z,13.00
2017-08-24T12:59:50.000Z,11.78
2017-08-24T13:02:18.279Z,11.48
2017-08-24T13:04:46.580Z,14.32
2017-08-24T13:07:14.883Z,12.18
2017-08-24T13:09:43.217Z,9.10
2017-08-24T13:12:11.476Z,9.70
2017-08-24T13:14:39.750Z,12.90
2017-08-24T13:17:08.045Z,11.70
2017-08-24T13:19:36.313Z,14.70
2017-08-24T13:22:04.624Z,10.44
2017-08-24T13:24:32.120Z,12.40
2017-08-24T13:27:00.385Z,13.42
2017-08-24T13:29:28.693Z,11.66
2017-08-24T13:31:56.977Z,14.58
2017-08-24T13:34:25.236Z,18.20
2017-08-24T13:36:53.547Z,8.88
2017-08-24T13:39:21.813Z,9.52
2017-08-24T13:41:51.029Z,9.92
2017-08-24T13:44:19.298Z,13.58
2017-08-24T13:46:47.565Z,8.68
2017-08-24T13:49:15.873Z,11.28
2017-08-24T13:51:43.373Z,12.52
2017-08-24T13:54:11.676Z,13.32
2017-08-24T13:56:39.950Z,13.78
2017-08-24T13:59:07.453Z,9.22
2017-08-24T14:01:35.741Z,9.56
2017-08-24T14:04:04.028Z,14.58
2017-08-24T14:06:32.390Z,8.78
2017-08-24T14:09:00.652Z,8.28
2017-08-24T14:11:28.904Z,8.52
2017-08-24T14:13:57.201Z,9.94
2017-08-24T14:16:25.499Z,10.44
2017-08-24T14:18:53.025Z,9.34
2017-08-24T14:21:20.569Z,8.20
2017-08-24T14:23:48.833Z,7.86
2017-08-24T14:26:17.102Z,7.98
2017-08-24T14:28:45.401Z,11.84
2017-08-24T14:31:13.709Z,14.16
2017-08-24T14:33:41.982Z,10.82
2017-08-24T14:36:10.246Z,8.70
2017-08-24T14:38:38.562Z,14.00
2017-08-24T14:41:06.825Z,9.34
2017-08-24T14:43:35.087Z,8.84
2017-08-24T14:46:03.381Z,9.44
2017-08-24T14:48:31.658Z,8.32
2017-08-24T14:50:59.945Z,9.32
2017-08-24T14:53:28.209Z,9.98
2017-08-24T14:55:56.496Z,9.46
2017-08-24T14:58:24.776Z,10.18
2017-08-24T15:00:53.074Z,10.36
2017-08-24T15:03:21.341Z,10.90
2017-08-24T15:05:49.613Z,12.88
2017-08-24T15:08:17.960Z,10.10
2017-08-24T15:10:46.226Z,11.16
2017-08-24T15:13:14.497Z,9.88
2017-08-24T15:15:42.802Z,9.90
2017-08-24T15:18:11.080Z,12.98
2017-08-24T15:20:39.398Z,11.84
2017-08-24T15:23:07.658Z,11.36
2017-08-24T15:25:35.924Z,14.22
2017-08-24T15:28:04.200Z,9.22
2017-08-24T15:30:32.461Z,11.44
2017-08-24T15:33:00.752Z,12.82
2017-08-24T15:35:29.052Z,13.36
2017-08-24T15:37:57.318Z,11.98
2017-08-24T15:40:24.851Z,11.00
2017-08-24T15:42:53.167Z,14.64
2017-08-24T15:45:21.431Z,11.48
2017-08-24T15:47:49.695Z,13.34
2017-08-24T15:50:17.984Z,9.00
2017-08-24T15:52:46.252Z,12.06
2017-08-24T15:55:14.575Z,11.20
2017-08-24T15:57:42.837Z,13.68
2017-08-24T16:00:11.104Z,14.48
2017-08-24T16:02:39.400Z,10.20
2017-08-24T16:05:07.655Z,11.86
2017-08-24T16:07:35.973Z,14.26
2017-08-24T16:10:04.251Z,17.72
2017-08-24T16:12:32.529Z,13.12
2017-08-24T16:15:00.070Z,39.90
2017-08-24T16:17:28.338Z,11.62
2017-08-24T16:19:56.863Z,11.20
2017-08-24T16:22:25.137Z,10.28
2017-08-24T16:24:53.439Z,12.56
2017-08-24T16:27:21.703Z,10.78
2017-08-24T16:29:49.998Z,10.84
2017-08-24T16:32:18.292Z,11.80
2017-08-24T16:34:46.582Z,9.68
2017-08-24T16:37:14.851Z,12.62
2017-08-24T16:39:43.144Z,9.04
2017-08-24T16:42:11.407Z,12.30
2017-08-24T16:44:39.729Z,8.26
2017-08-24T16:47:07.996Z,11.68
2017-08-24T16:49:36.265Z,13.78
2017-08-24T16:52:04.560Z,10.02
2017-08-24T16:54:32.833Z,14.26
2017-08-24T16:57:01.152Z,36.40
2017-08-24T16:59:29.426Z,10.62
2017-08-24T17:01:57.681Z,8.48
2017-08-24T17:04:25.987Z,18.44
2017-08-24T17:06:54.253Z,12.40
2017-08-24T17:09:22.545Z,11.80
2017-08-24T17:11:50.804Z,14.94
2017-08-24T17:14:19.105Z,9.00
2017-08-24T17:16:47.381Z,10.44
2017-08-24T17:19:15.652Z,8.78
2017-08-24T17:21:43.933Z,9.88
2017-08-24T17:24:12.200Z,7.48
2017-08-24T17:26:40.482Z,12.42
2017-08-24T17:29:07.986Z,11.92
2017-08-24T17:31:36.308Z,13.84
2017-08-24T17:34:04.569Z,18.92
2017-08-24T17:36:32.842Z,9.74
2017-08-24T17:39:01.142Z,9.76
2017-08-24T17:41:29.405Z,8.16
2017-08-24T17:43:57.712Z,6.60
2017-08-24T17:46:26.001Z,11.46
2017-08-24T17:48:54.274Z,8.02
2017-08-24T17:51:22.589Z,7.94
2017-08-24T17:53:50.860Z,7.22
2017-08-24T17:56:19.149Z,8.10
2017-08-24T17:58:47.428Z,8.46
2017-08-24T18:01:15.752Z,5.98
2017-08-24T18:03:44.018Z,6.22
2017-08-24T18:06:12.294Z,15.64
2017-08-24T18:08:40.587Z,11.16
2017-08-24T18:11:08.852Z,6.42
2017-08-24T18:13:37.141Z,5.28
2017-08-24T18:16:05.440Z,6.94
2017-08-24T18:18:33.743Z,17.54
2017-08-24T18:21:02.005Z,9.10
2017-08-24T18:23:30.306Z,5.70
2017-08-24T18:25:58.599Z,8.66
2017-08-24T18:28:26.866Z,8.66
2017-08-24T18:30:55.178Z,14.04
2017-08-24T18:33:23.449Z,9.20
2017-08-24T18:35:51.712Z,6.62
2017-08-24T18:38:20.001Z,7.60
2017-08-24T18:40:48.275Z,7.22
2017-08-24T18:43:16.564Z,10.98
2017-08-24T18:45:44.841Z,10.52
2017-08-24T18:48:12.378Z,11.14
2017-08-24T18:50:40.643Z,11.84
2017-08-24T18:53:08.941Z,12.38
2017-08-24T18:55:37.208Z,6.30
2017-08-24T18:58:05.510Z,9.62
2017-08-24T19:00:33.771Z,6.78
2017-08-24T19:03:02.045Z,6.28
2017-08-24T19:05:30.344Z,9.64
2017-08-24T19:07:58.618Z,9.40
2017-08-24T19:10:26.917Z,7.06
2017-08-24T19:12:55.195Z,6.88
2017-08-24T19:15:23.500Z,11.98
2017-08-24T19:17:51.768Z,9.18
2017-08-24T19:20:20.057Z,8.74
2017-08-24T19:22:48.352Z,7.72
2017-08-24T19:25:16.636Z,6.20
2017-08-24T19:27:44.164Z,6.14
2017-08-24T19:30:12.421Z,7.44
2017-08-24T19:32:40.721Z,9.26
2017-08-24T19:35:09.024Z,5.76
2017-08-24T19:37:37.316Z,5.32
2017-08-24T19:40:04.841Z,5.76
2017-08-24T19:42:33.150Z,6.76
2017-08-24T19:45:01.424Z,14.12
2017-08-24T19:47:29.697Z,6.46
2017-08-24T19:49:58.006Z,5.10
2017-08-24T19:52:26.285Z,9.88
2017-08-24T19:54:54.558Z,6.72
2017-08-24T19:57:22.861Z,8.72
2017-08-24T19:59:51.166Z,9.98
2017-08-24T20:02:19.426Z,6.52
2017-08-24T20:04:47.725Z,7.48
2017-08-24T20:07:16.037Z,6.26
2017-08-24T20:09:44.298Z,8.94
2017-08-24T20:12:12.564Z,9.92
2017-08-24T20:14:40.864Z,9.84
2017-08-24T20:17:09.125Z,10.90
2017-08-24T20:19:37.399Z,5.70
2017-08-24T20:22:05.708Z,8.44
2017-08-24T20:24:33.968Z,11.38
2017-08-24T20:27:02.230Z,7.72
2017-08-24T20:29:30.523Z,7.96
2017-08-24T20:31:58.791Z,6.74
2017-08-24T20:34:27.089Z,5.08
2017-08-24T20:36:55.398Z,11.20
2017-08-24T20:39:23.703Z,5.66
2017-08-24T20:41:52.002Z,6.18
2017-08-24T20:44:20.265Z,7.30
2017-08-24T20:46:48.578Z,5.48
2017-08-24T20:49:16.864Z,6.86
2017-08-24T20:51:45.183Z,6.40
2017-08-24T20:54:13.497Z,6.24
2017-08-24T20:56:41.760Z,5.84
2017-08-24T20:59:10.157Z,7.02
2017-08-24T21:01:38.426Z,10.32
2017-08-24T21:04:06.700Z,5.26
2017-08-24T21:06:34.996Z,5.80
2017-08-24T21:09:03.289Z,6.40
2017-08-24T21:11:31.552Z,11.96
2017-08-24T21:13:59.840Z,5.08
2017-08-24T21:16:28.101Z,10.04
2017-08-24T21:18:56.407Z,7.72
2017-08-24T21:21:24.667Z,6.06
2017-08-24T21:23:52.922Z,5.04
2017-08-24T21:26:21.224Z,11.70
2017-08-24T21:28:49.481Z,4.44
2017-08-24T21:31:17.744Z,6.44
2017-08-24T21:33:46.045Z,5.00
2017-08-24T21:36:14.302Z,5.64
2017-08-24T21:38:42.559Z,4.12
2017-08-24T21:41:10.861Z,8.54
2017-08-24T21:43:39.149Z,3.36
2017-08-24T21:46:07.457Z,9.30
2017-08-24T21:48:35.757Z,5.48
2017-08-24T21:51:04.021Z,7.74
2017-08-24T21:53:32.321Z,8.10
2017-08-24T21:56:00.601Z,7.56
2017-08-24T21:58:28.900Z,7.80
2017-08-24T22:00:57.185Z,8.32
2017-08-24T22:03:25.443Z,5.90
2017-08-24T22:05:53.741Z,4.48
2017-08-24T22:08:22.055Z,5.48
2017-08-24T22:10:50.316Z,4.00
2017-08-24T22:13:18.580Z,4.84
2017-08-24T22:15:46.872Z,7.06
2017-08-24T22:18:15.137Z,4.48
2017-08-24T22:20:43.444Z,6.44
2017-08-24T22:23:11.716Z,7.14
2017-08-24T22:25:39.999Z,4.36
2017-08-24T22:28:08.288Z,3.90
2017-08-24T22:30:36.544Z,5.84
2017-08-24T22:33:04.852Z,4.58
2017-08-24T22:35:33.165Z,6.94
2017-08-24T22:38:01.417Z,4.64
2017-08-24T22:40:29.684Z,5.42
2017-08-24T22:42:57.980Z,3.50
2017-08-24T22:45:26.276Z,7.06
2017-08-24T22:47:54.578Z,4.20
2017-08-24T22:50:22.851Z,6.52
2017-08-24T22:52:51.143Z,3.60
2017-08-24T22:55:25.077Z,6.76
2017-08-24T22:57:59.057Z,6.56
2017-08-24T23:00:32.992Z,5.74
2017-08-24T23:03:07.024Z,6.08
2017-08-24T23:05:35.290Z,4.18
2017-08-24T23:08:03.581Z,6.80
2017-08-24T23:10:31.868Z,4.34
2017-08-24T23:13:00.126Z,5.28
2017-08-24T23:15:28.391Z,4.60
2017-08-24T23:17:56.666Z,5.44
2017-08-24T23:20:24.956Z,4.84
2017-08-24T23:22:53.215Z,5.84
2017-08-24T23:25:21.561Z,5.50
2017-08-24T23:27:49.837Z,4.70
2017-08-24T23:30:18.100Z,5.76
2017-08-24T23:32:46.400Z,6.36
2017-08-24T23:35:14.664Z,5.32
2017-08-24T23:37:43.004Z,6.40
2017-08-24T23:40:11.265Z,7.60
2017-08-24T23:42:39.528Z,6.22
2017-08-24T23:45:07.825Z,6.64
2017-08-24T23:47:36.092Z,6.34
2017-08-24T23:50:04.361Z,8.00
2017-08-24T23:52:32.653Z,7.82
2017-08-24T23:55:00.917Z,10.94
2017-08-24T23:57:29.205Z,4.70
2017-08-24T23:59:57.511Z,6.88
